Time;durP1;ratioP1;P1;durP2;ratioP2;P2;SDS_P1;SDS_P2;PMS_P1;PMS_P2;Temp;Humidity;BMP_temperature;BMP_pressure;BME280_temperature;BME280_humidity;BME280_pressure;Samples;Min_cycle;Max_cycle;Signal;HPM_P1;HPM_P2
2023/12/15 00:00:21;;;;;;;;;;;;;;;6.85;100.00;102713.13;5115129;28;19994;-42
2023/12/15 00:02:46;;;;;;;;;;;;;;;6.87;100.00;102715.66;5116454;28;19973;-43
2023/12/15 00:05:12;;;;;;;;;;;;;;;6.87;100.00;102713.84;5114497;28;21685;-42
2023/12/15 00:07:37;;;;;;;;;;;;;;;6.89;100.00;102719.94;5115079;28;20018;-42
2023/12/15 00:10:02;;;;;;;;;;;;;;;6.87;100.00;102718.34;5115805;28;20382;-42
2023/12/15 00:12:28;;;;;;;;;;;;;;;6.89;100.00;102729.81;5116092;28;20358;-42
2023/12/15 00:14:53;;;;;;;;;;;;;;;6.88;100.00;102738.81;5116030;28;19927;-44
2023/12/15 00:17:18;;;;;;;;;;;;;;;6.89;100.00;102752.06;5116131;28;20006;-42
2023/12/15 00:19:43;;;;;;;;;;;;;;;6.88;100.00;102749.50;5116360;28;20027;-43
2023/12/15 00:22:09;;;;;;;;;;;;;;;6.93;100.00;102755.41;5115876;28;19919;-42
2023/12/15 00:24:34;;;;;;;;;;;;;;;6.92;100.00;102759.88;5114873;28;20018;-43
2023/12/15 00:26:59;;;;;;;;;;;;;;;6.95;100.00;102758.78;5115597;28;19919;-42
2023/12/15 00:29:25;;;;;;;;;;;;;;;6.95;100.00;102764.16;5115656;28;19927;-43
2023/12/15 00:31:50;;;;;;;;;;;;;;;6.96;100.00;102764.03;5115404;28;19920;-43
2023/12/15 00:34:15;;;;;;;;;;;;;;;7.00;100.00;102762.00;5115333;28;19959;-42
2023/12/15 00:36:40;;;;;;;;;;;;;;;6.95;100.00;102753.44;5114768;28;19924;-43
2023/12/15 00:39:05;;;;;;;;;;;;;;;7.02;100.00;102744.00;5117193;28;19920;-42
2023/12/15 00:41:31;;;;;;;;;;;;;;;7.02;100.00;102744.00;5115751;28;19927;-43
2023/12/15 00:43:56;;;;;;;;;;;;;;;6.99;100.00;102738.88;5115318;28;19920;-41
2023/12/15 00:46:21;;;;;;;;;;;;;;;7.01;100.00;102744.97;5115544;28;19920;-42
2023/12/15 00:48:46;;;;;;;;;;;;;;;6.99;100.00;102747.75;5114819;28;19980;-42
2023/12/15 00:51:11;;;;;;;;;;;;;;;7.00;100.00;102748.59;5118288;28;20006;-41
2023/12/15 00:53:37;;;;;;;;;;;;;;;7.00;100.00;102752.16;5120091;28;19923;-41
2023/12/15 00:56:02;;;;;;;;;;;;;;;6.99;100.00;102752.25;5115731;28;19919;-42
2023/12/15 00:58:27;;;;;;;;;;;;;;;6.99;100.00;102758.47;5116481;28;19918;-43
2023/12/15 01:00:53;;;;;;;;;;;;;;;7.04;100.00;102753.63;5116489;28;20015;-40
2023/12/15 01:03:18;;;;;;;;;;;;;;;7.02;100.00;102773.44;5114324;28;19928;-42
2023/12/15 01:05:43;;;;;;;;;;;;;;;7.03;100.00;102769.81;5107589;28;19927;-41
2023/12/15 01:08:08;;;;;;;;;;;;;;;7.00;100.00;102762.88;5103956;28;19923;-44
2023/12/15 01:10:34;;;;;;;;;;;;;;;7.00;100.00;102764.66;5115055;28;19930;-41
2023/12/15 01:12:59;;;;;;;;;;;;;;;6.98;100.00;102766.63;5114917;28;19919;-43
2023/12/15 01:15:26;;;;;;;;;;;;;;;6.96;100.00;102765.88;5116278;28;20303;-42
2023/12/15 01:17:51;;;;;;;;;;;;;;;6.97;100.00;102763.06;5114194;28;20366;-42
2023/12/15 01:20:17;;;;;;;;;;;;;;;6.96;100.00;102760.53;5112912;28;20349;-42
2023/12/15 01:22:42;;;;;;;;;;;;;;;6.96;100.00;102750.66;5113926;28;19981;-41
2023/12/15 01:25:07;;;;;;;;;;;;;;;6.94;100.00;102765.13;5113907;28;19989;-41
2023/12/15 01:27:32;;;;;;;;;;;;;;;6.97;100.00;102762.22;5114468;28;19965;-43
2023/12/15 01:29:58;;;;;;;;;;;;;;;6.98;100.00;102769.31;5114772;28;19920;-43
2023/12/15 01:32:23;;;;;;;;;;;;;;;7.00;100.00;102775.38;5116197;28;19924;-42
2023/12/15 01:34:48;;;;;;;;;;;;;;;7.02;100.00;102771.63;5114593;28;19931;-42
2023/12/15 01:37:13;;;;;;;;;;;;;;;7.01;100.00;102771.75;5114594;28;19919;-41
2023/12/15 01:39:38;;;;;;;;;;;;;;;7.02;100.00;102792.19;5115426;28;20017;-42
2023/12/15 01:42:04;;;;;;;;;;;;;;;7.01;100.00;102795.84;5116402;28;19947;-42
2023/12/15 01:44:29;;;;;;;;;;;;;;;7.01;100.00;102803.88;5115443;28;19941;-41
2023/12/15 01:46:54;;;;;;;;;;;;;;;7.03;100.00;102815.34;5115580;28;20366;-43
2023/12/15 01:49:19;;;;;;;;;;;;;;;7.04;100.00;102814.34;5113679;28;20389;-42
2023/12/15 01:51:45;;;;;;;;;;;;;;;7.03;100.00;102801.94;5113824;28;20311;-41
2023/12/15 01:54:10;;;;;;;;;;;;;;;7.03;100.00;102810.84;5112984;28;20384;-42
2023/12/15 01:56:35;;;;;;;;;;;;;;;7.04;100.00;102811.69;5113332;28;19920;-44
2023/12/15 01:59:00;;;;;;;;;;;;;;;7.07;100.00;102832.03;5112925;28;19924;-43
2023/12/15 02:01:26;;;;;;;;;;;;;;;7.08;100.00;102831.91;5112777;28;20338;-42
2023/12/15 02:03:51;;;;;;;;;;;;;;;7.10;100.00;102840.69;5113784;28;19965;-42
2023/12/15 02:06:16;;;;;;;;;;;;;;;7.10;100.00;102848.72;5104706;28;20011;-41
2023/12/15 02:08:44;;;;;;;;;;;;;;;7.10;100.00;102859.44;5107397;28;19959;-42
2023/12/15 02:11:09;;;;;;;;;;;;;;;7.12;100.00;102862.84;5113643;28;20297;-43
2023/12/15 02:13:35;;;;;;;;;;;;;;;7.15;100.00;102864.47;5113055;28;19931;-43
2023/12/15 02:16:00;;;;;;;;;;;;;;;7.16;100.00;102875.06;5113490;28;19919;-43
2023/12/15 02:18:25;;;;;;;;;;;;;;;7.18;100.00;102878.47;5114059;28;19920;-42
2023/12/15 02:20:50;;;;;;;;;;;;;;;7.17;100.00;102886.63;5114919;28;20338;-42
2023/12/15 02:23:16;;;;;;;;;;;;;;;7.18;100.00;102888.34;5114836;28;19920;-43
2023/12/15 02:25:41;;;;;;;;;;;;;;;7.17;100.00;102890.16;5114253;28;19920;-42
2023/12/15 02:28:06;;;;;;;;;;;;;;;7.18;100.00;102888.34;5112354;28;20337;-43
2023/12/15 02:30:31;;;;;;;;;;;;;;;7.17;100.00;102887.47;5113512;28;19920;-42
2023/12/15 02:32:56;;;;;;;;;;;;;;;7.18;100.00;102883.81;5112809;28;19920;-43
2023/12/15 02:35:22;;;;;;;;;;;;;;;7.21;100.00;102880.06;5113312;28;19921;-43
2023/12/15 02:37:47;;;;;;;;;;;;;;;7.20;100.00;102881.91;5112702;28;19972;-42
2023/12/15 02:40:12;;;;;;;;;;;;;;;7.21;100.00;102893.47;5113155;28;20131;-42
2023/12/15 02:42:37;;;;;;;;;;;;;;;7.22;100.00;102884.50;5112754;28;19972;-42
2023/12/15 02:45:03;;;;;;;;;;;;;;;7.22;100.00;102905.91;5109254;28;20006;-42
2023/12/15 02:47:28;;;;;;;;;;;;;;;7.24;100.00;102902.16;5111509;28;19963;-42
2023/12/15 02:49:54;;;;;;;;;;;;;;;7.24;100.00;102910.19;5112086;28;19920;-44
2023/12/15 02:52:19;;;;;;;;;;;;;;;7.24;100.00;102910.19;5112618;28;19965;-43
2023/12/15 02:54:44;;;;;;;;;;;;;;;7.25;100.00;102911.91;5112873;28;19941;-41
2023/12/15 02:57:10;;;;;;;;;;;;;;;7.26;100.00;102913.59;5112897;28;19973;-43
2023/12/15 02:59:35;;;;;;;;;;;;;;;7.26;100.00;102913.59;5109263;28;19920;-42
2023/12/15 03:02:00;;;;;;;;;;;;;;;7.25;100.00;102911.91;5112780;28;19920;-42
2023/12/15 03:04:25;;;;;;;;;;;;;;;7.24;100.00;102920.03;5112043;28;19973;-43
2023/12/15 03:06:50;;;;;;;;;;;;;;;7.23;100.00;102921.84;5112157;28;19919;-43
2023/12/15 03:09:16;;;;;;;;;;;;;;;7.29;100.00;102933.09;5111813;28;19919;-43
2023/12/15 03:11:41;;;;;;;;;;;;;;;7.31;100.00;102931.19;5112066;28;19946;-43
2023/12/15 03:14:06;;;;;;;;;;;;;;;7.31;100.00;102928.50;5112736;28;19915;-42
2023/12/15 03:16:31;;;;;;;;;;;;;;;7.31;100.00;102928.50;5112456;28;19920;-44
2023/12/15 03:18:57;;;;;;;;;;;;;;;7.29;100.00;102938.47;5111723;28;19926;-43
2023/12/15 03:21:22;;;;;;;;;;;;;;;7.30;100.00;102938.34;5112375;28;19920;-43
2023/12/15 03:23:47;;;;;;;;;;;;;;;7.29;100.00;102944.66;5112583;28;19927;-43
2023/12/15 03:26:12;;;;;;;;;;;;;;;7.31;100.00;102937.38;5109911;28;19926;-42
2023/12/15 03:28:39;;;;;;;;;;;;;;;7.31;100.00;102947.25;5099114;28;19920;-43
2023/12/15 03:31:04;;;;;;;;;;;;;;;7.31;100.00;102936.53;5111228;28;19928;-43
2023/12/15 03:33:32;;;;;;;;;;;;;;;7.31;100.00;102934.69;5112542;28;19920;-42
2023/12/15 03:35:58;;;;;;;;;;;;;;;7.29;100.00;102933.94;5111230;28;20053;-43
2023/12/15 03:38:23;;;;;;;;;;;;;;;7.34;100.00;102938.97;5112054;28;20006;-43
2023/12/15 03:40:48;;;;;;;;;;;;;;;7.36;100.00;102955.81;5111873;28;20019;-43
2023/12/15 03:43:13;;;;;;;;;;;;;;;7.36;100.00;102956.66;5098409;28;19920;-43
2023/12/15 03:45:39;;;;;;;;;;;;;;;7.38;100.00;102960.09;5109995;28;19923;-41
2023/12/15 03:48:04;;;;;;;;;;;;;;;7.39;100.00;102963.63;5111824;28;20378;-41
2023/12/15 03:50:29;;;;;;;;;;;;;;;7.37;100.00;102958.41;5111612;28;19947;-43
2023/12/15 03:52:54;;;;;;;;;;;;;;;7.37;100.00;102952.16;5111744;28;19924;-43
2023/12/15 03:55:19;;;;;;;;;;;;;;;7.37;100.00;102952.16;5109684;28;19919;-42
2023/12/15 03:57:45;;;;;;;;;;;;;;;7.39;100.00;102961.78;5111206;28;19966;-42
2023/12/15 04:00:10;;;;;;;;;;;;;;;7.41;100.00;102967.06;5112850;28;19951;-41
2023/12/15 04:02:35;;;;;;;;;;;;;;;7.40;100.00;102963.53;5113438;28;19919;-42
2023/12/15 04:05:01;;;;;;;;;;;;;;;7.46;100.00;102979.16;5113133;28;20188;-42
2023/12/15 04:07:27;;;;;;;;;;;;;;;7.47;100.00;102980.00;5109877;28;19963;-42
2023/12/15 04:09:52;;;;;;;;;;;;;;;7.44;100.00;102975.72;5096601;28;19920;-42
2023/12/15 04:12:17;;;;;;;;;;;;;;;7.43;100.00;102978.53;5111547;28;19934;-42
2023/12/15 04:14:42;;;;;;;;;;;;;;;7.41;100.00;102975.09;5112310;28;19916;-42
2023/12/15 04:17:08;;;;;;;;;;;;;;;7.39;100.00;102985.06;5103893;28;19943;-41
2023/12/15 04:19:33;;;;;;;;;;;;;;;7.41;100.00;102980.47;5111951;28;19928;-43
2023/12/15 04:21:58;;;;;;;;;;;;;;;7.40;100.00;102986.78;5111570;28;19944;-43
2023/12/15 04:24:25;;;;;;;;;;;;;;;7.41;100.00;102988.50;5111946;28;19916;-43
2023/12/15 04:26:50;;;;;;;;;;;;;;;7.40;100.00;102982.28;5111781;28;19920;-42
2023/12/15 04:29:15;;;;;;;;;;;;;;;7.40;100.00;102986.78;5111892;28;19927;-42
2023/12/15 04:31:41;;;;;;;;;;;;;;;7.40;100.00;103000.19;5111887;28;19927;-43
2023/12/15 04:34:06;;;;;;;;;;;;;;;7.43;100.00;102999.97;5111912;28;19920;-41
2023/12/15 04:36:32;;;;;;;;;;;;;;;7.43;100.00;102989.25;5112338;28;19920;-43
2023/12/15 04:38:57;;;;;;;;;;;;;;;7.42;100.00;102987.50;5114366;28;20459;-42
2023/12/15 04:41:23;;;;;;;;;;;;;;;7.42;100.00;102995.56;5114592;28;19920;-42
2023/12/15 04:43:48;;;;;;;;;;;;;;;7.43;100.00;103000.81;5114382;28;19988;-42
2023/12/15 04:46:26;;;;;;;;;;;;;;;7.45;100.00;103004.25;5114121;28;19970;-42
2023/12/15 04:48:51;;;;;;;;;;;;;;;7.46;100.00;103008.63;5112733;28;19920;-44
2023/12/15 04:51:16;;;;;;;;;;;;;;;7.47;100.00;103007.66;5115437;28;19920;-42
2023/12/15 04:53:42;;;;;;;;;;;;;;;7.49;100.00;103020.94;5148767;27;20385;-42
2023/12/15 04:56:07;;;;;;;;;;;;;;;7.51;100.00;103027.06;5115525;28;20014;-42
2023/12/15 04:58:32;;;;;;;;;;;;;;;7.53;100.00;103032.31;5117665;28;19926;-41
2023/12/15 05:00:57;;;;;;;;;;;;;;;7.52;100.00;103031.44;5118325;28;19944;-43
2023/12/15 05:03:23;;;;;;;;;;;;;;;7.52;100.00;103039.50;5111303;28;20014;-40
2023/12/15 05:05:48;;;;;;;;;;;;;;;7.53;100.00;103037.66;5101326;28;20443;-42
2023/12/15 05:08:13;;;;;;;;;;;;;;;7.54;100.00;103034.88;5110518;27;20369;-41
2023/12/15 05:10:38;;;;;;;;;;;;;;;7.54;100.00;103039.41;5110416;28;19988;-40
2023/12/15 05:13:03;;;;;;;;;;;;;;;7.55;100.00;103047.31;5110425;28;19923;-42
2023/12/15 05:15:29;;;;;;;;;;;;;;;7.54;100.00;103048.28;5113284;28;19977;-42
2023/12/15 05:17:54;;;;;;;;;;;;;;;7.55;100.00;103058.03;5093843;27;19924;-42
2023/12/15 05:20:20;;;;;;;;;;;;;;;7.58;100.00;103052.47;5102871;28;19924;-44
2023/12/15 05:22:45;;;;;;;;;;;;;;;7.59;100.00;103054.19;5100991;28;19930;-42
2023/12/15 05:25:10;;;;;;;;;;;;;;;7.60;100.00;103061.25;5098581;28;19920;-42
2023/12/15 05:27:36;;;;;;;;;;;;;;;7.60;100.00;103060.38;5103838;28;19977;-43
2023/12/15 05:30:02;;;;;;;;;;;;;;;7.59;100.00;103059.53;5100410;28;19993;-43
2023/12/15 05:32:27;;;;;;;;;;;;;;;7.62;100.00;103059.31;5104811;28;19935;-43
2023/12/15 05:34:52;;;;;;;;;;;;;;;7.62;100.00;103048.59;5099335;28;19928;-43
2023/12/15 05:37:18;;;;;;;;;;;;;;;7.63;100.00;103042.25;5100080;27;19923;-42
2023/12/15 05:39:44;;;;;;;;;;;;;;;7.63;100.00;103044.09;5099470;28;19920;-41
2023/12/15 05:42:10;;;;;;;;;;;;;;;7.65;100.00;103045.69;5108988;28;19976;-42
2023/12/15 05:44:37;;;;;;;;;;;;;;;7.66;100.00;103038.50;5112585;28;20385;-42
2023/12/15 05:47:02;;;;;;;;;;;;;;;7.66;100.00;103052.78;5112725;28;20020;-43
2023/12/15 05:49:28;;;;;;;;;;;;;;;7.67;100.00;103051.81;5111113;28;20386;-43
2023/12/15 05:51:53;;;;;;;;;;;;;;;7.68;100.00;103050.84;5108406;28;19923;-44
2023/12/15 05:54:18;;;;;;;;;;;;;;;7.70;100.00;103058.78;5111982;28;19990;-43
2023/12/15 05:56:43;;;;;;;;;;;;;;;7.71;100.00;103073.88;5112196;28;19973;-42
2023/12/15 05:59:08;;;;;;;;;;;;;;;7.72;100.00;103074.75;5122560;27;20281;-42
2023/12/15 06:01:34;;;;;;;;;;;;;;;7.74;100.00;103075.50;5123230;27;20019;-43
2023/12/15 06:03:59;;;;;;;;;;;;;;;7.75;100.00;103069.19;5113377;28;19935;-45
2023/12/15 06:06:24;;;;;;;;;;;;;;;7.75;100.00;103071.84;5114369;28;19919;-45
2023/12/15 06:08:50;;;;;;;;;;;;;;;7.76;100.00;103073.56;5111840;28;19919;-43
2023/12/15 06:11:15;;;;;;;;;;;;;;;7.76;100.00;103084.28;5112256;28;19920;-43
2023/12/15 06:13:41;;;;;;;;;;;;;;;7.79;100.00;103086.75;5117761;27;19920;-43
2023/12/15 06:16:07;;;;;;;;;;;;;;;7.79;100.00;103089.44;5112053;28;19919;-42
2023/12/15 06:18:32;;;;;;;;;;;;;;;7.78;100.00;103087.72;5112723;28;20289;-42
2023/12/15 06:20:57;;;;;;;;;;;;;;;7.77;100.00;103088.69;5113132;28;19919;-42
2023/12/15 06:23:22;;;;;;;;;;;;;;;7.77;100.00;103080.66;5096067;28;20274;-42
2023/12/15 06:25:48;;;;;;;;;;;;;;;7.74;100.00;103084.41;5098157;28;20293;-43
2023/12/15 06:28:13;;;;;;;;;;;;;;;7.75;100.00;103085.25;5113437;27;20433;-43
2023/12/15 06:30:38;;;;;;;;;;;;;;;7.80;100.00;103093.84;5113962;28;20313;-43
2023/12/15 06:33:07;;;;;;;;;;;;;;;7.79;100.00;103097.47;5114023;28;20258;-43
2023/12/15 06:35:32;;;;;;;;;;;;;;;7.79;100.00;103108.19;5112966;28;20031;-44
2023/12/15 06:37:57;;;;;;;;;;;;;;;7.81;100.00;103115.16;5110646;28;20417;-44
2023/12/15 06:40:22;;;;;;;;;;;;;;;7.79;100.00;103113.56;5113154;28;19927;-43
2023/12/15 06:42:48;;;;;;;;;;;;;;;7.79;100.00;103113.56;5111809;28;20397;-43
2023/12/15 06:45:13;;;;;;;;;;;;;;;7.79;100.00;103126.94;5112856;28;20381;-44
2023/12/15 06:47:39;;;;;;;;;;;;;;;7.80;100.00;103139.41;5110114;28;19920;-41
2023/12/15 06:50:05;;;;;;;;;;;;;;;7.79;100.00;103135.00;5109049;28;20012;-43
2023/12/15 06:52:31;;;;;;;;;;;;;;;7.80;100.00;103126.00;5113184;28;19915;-41
2023/12/15 06:54:56;;;;;;;;;;;;;;;7.78;100.00;103122.56;5112720;28;19924;-41
2023/12/15 06:57:21;;;;;;;;;;;;;;;7.79;100.00;103140.34;5112518;28;19947;-42
2023/12/15 06:59:47;;;;;;;;;;;;;;;7.81;100.00;103149.16;5112747;28;19981;-42
2023/12/15 07:02:12;;;;;;;;;;;;;;;7.82;100.00;103149.06;5112799;28;19922;-43
2023/12/15 07:04:37;;;;;;;;;;;;;;;7.84;100.00;103148.94;5112801;28;19981;-43
2023/12/15 07:07:02;;;;;;;;;;;;;;;7.85;100.00;103148.84;5107305;28;19920;-43
2023/12/15 07:09:28;;;;;;;;;;;;;;;7.84;100.00;103132.84;5112428;28;20369;-42
2023/12/15 07:11:54;;;;;;;;;;;;;;;7.82;100.00;103145.50;5111686;28;19919;-42
2023/12/15 07:14:19;;;;;;;;;;;;;;;7.81;100.00;103143.78;5111633;28;19924;-42
2023/12/15 07:16:44;;;;;;;;;;;;;;;7.81;100.00;103146.47;5112201;28;19989;-42
2023/12/15 07:19:09;;;;;;;;;;;;;;;7.83;100.00;103144.56;5112832;28;19990;-42
2023/12/15 07:21:35;;;;;;;;;;;;;;;7.82;100.00;103145.50;5111809;28;19919;-44
2023/12/15 07:24:00;;;;;;;;;;;;;;;7.83;100.00;103152.59;5114403;28;19923;-42
2023/12/15 07:26:25;;;;;;;;;;;;;;;7.85;100.00;103154.22;5114416;28;19966;-43
2023/12/15 07:28:50;;;;;;;;;;;;;;;7.86;100.00;103152.38;5111613;28;19931;-43
2023/12/15 07:31:16;;;;;;;;;;;;;;;7.87;100.00;103159.44;5112354;28;19919;-42
2023/12/15 07:33:41;;;;;;;;;;;;;;;7.85;100.00;103158.72;5112945;28;19923;-42
2023/12/15 07:36:06;;;;;;;;;;;;;;;7.85;100.00;103161.41;5117607;28;19920;-42
2023/12/15 07:38:32;;;;;;;;;;;;;;;7.86;100.00;103158.59;5111455;28;19926;-43
2023/12/15 07:40:57;;;;;;;;;;;;;;;7.87;100.00;103154.97;5111848;28;19968;-43
2023/12/15 07:43:22;;;;;;;;;;;;;;;7.89;100.00;103165.56;5112760;28;20267;-43
2023/12/15 07:45:47;;;;;;;;;;;;;;;7.89;100.00;103163.72;5113787;28;20406;-39
2023/12/15 07:48:13;;;;;;;;;;;;;;;7.88;100.00;103172.75;5114248;28;19916;-38
2023/12/15 07:50:39;;;;;;;;;;;;;;;7.87;100.00;103172.84;5114673;28;20322;-38
2023/12/15 07:53:04;;;;;;;;;;;;;;;7.87;100.00;103186.25;5114521;28;19920;-39
2023/12/15 07:55:29;;;;;;;;;;;;;;;7.87;100.00;103203.22;5115596;28;19919;-39
2023/12/15 07:57:55;;;;;;;;;;;;;;;7.90;100.00;103202.16;5114925;28;19920;-38
2023/12/15 08:00:20;;;;;;;;;;;;;;;7.92;100.00;103210.94;5115694;28;19995;-39
2023/12/15 08:02:45;;;;;;;;;;;;;;;7.93;100.00;103209.97;5130291;28;19946;-38
2023/12/15 08:05:10;;;;;;;;;;;;;;;7.93;100.00;103204.63;5116260;28;19920;-39
2023/12/15 08:07:36;;;;;;;;;;;;;;;7.94;100.00;103219.72;5104645;28;19935;-39
2023/12/15 08:10:01;;;;;;;;;;;;;;;7.94;100.00;103219.72;5108517;28;19965;-39
2023/12/15 08:12:27;;;;;;;;;;;;;;;7.93;100.00;103212.66;5117479;28;19920;-39
2023/12/15 08:14:52;;;;;;;;;;;;;;;7.95;100.00;103218.75;5124410;28;20020;-39
2023/12/15 08:17:17;;;;;;;;;;;;;;;7.95;100.00;103213.38;5123966;27;20383;-38
2023/12/15 08:19:44;;;;;;;;;;;;;;;7.98;100.00;103223.03;5114575;28;20185;-39
2023/12/15 08:22:09;;;;;;;;;;;;;;;8.00;100.00;103218.44;5111854;27;19920;-39
2023/12/15 08:24:35;;;;;;;;;;;;;;;8.03;100.00;103219.09;5100252;28;19916;-39
2023/12/15 08:27:00;;;;;;;;;;;;;;;8.05;100.00;103222.50;5108485;28;19916;-39
2023/12/15 08:29:26;;;;;;;;;;;;;;;8.08;100.00;103229.47;5116748;28;19949;-39
2023/12/15 08:31:51;;;;;;;;;;;;;;;8.10;100.00;103233.78;5117456;28;20015;-39
2023/12/15 08:34:16;;;;;;;;;;;;;;;8.14;100.00;103237.13;5105144;28;19956;-38
2023/12/15 08:36:42;;;;;;;;;;;;;;;8.16;100.00;103237.00;5107510;27;20407;-38
2023/12/15 08:39:08;;;;;;;;;;;;;;;8.17;100.00;103241.41;5099944;28;19920;-38
2023/12/15 08:41:33;;;;;;;;;;;;;;;8.15;100.00;103246.88;5120734;27;19969;-39
2023/12/15 08:43:58;;;;;;;;;;;;;;;8.17;100.00;103239.59;5124333;28;19916;-38
2023/12/15 08:46:24;;;;;;;;;;;;;;;8.20;100.00;103249.25;5125405;27;19919;-39
2023/12/15 08:48:49;;;;;;;;;;;;;;;8.23;100.00;103243.66;5120609;28;19927;-38
2023/12/15 08:51:14;;;;;;;;;;;;;;;8.23;100.00;103249.88;5120983;28;19953;-38
2023/12/15 08:53:40;;;;;;;;;;;;;;;8.23;100.00;103247.19;5120038;28;19920;-38
2023/12/15 08:56:05;;;;;;;;;;;;;;;8.30;100.00;103247.63;5121080;27;19919;-38
2023/12/15 08:58:31;;;;;;;;;;;;;;;8.32;100.00;103245.69;5123414;27;19920;-38
2023/12/15 09:00:56;;;;;;;;;;;;;;;8.33;100.00;103245.59;5120338;28;19916;-40
2023/12/15 09:03:22;;;;;;;;;;;;;;;8.40;100.00;103253.22;5115984;28;19916;-36
2023/12/15 09:05:47;;;;;;;;;;;;;;;8.43;100.00;103251.19;5116262;28;19923;-36
2023/12/15 09:08:12;;;;;;;;;;;;;;;8.49;100.00;103264.19;5124141;28;20006;-37
2023/12/15 09:10:43;;;;;;;;;;;;;;;8.52;100.00;103263.94;5126428;28;19920;-38
2023/12/15 09:13:08;;;;;;;;;;;;;;;8.54;100.00;103282.66;5127037;28;19955;-37
2023/12/15 09:15:33;;;;;;;;;;;;;;;8.53;100.00;103289.84;5126929;27;19969;-37
2023/12/15 09:17:59;;;;;;;;;;;;;;;8.60;100.00;103297.44;5123663;28;19941;-37
2023/12/15 09:20:24;;;;;;;;;;;;;;;8.67;100.00;103298.75;5125580;27;19919;-37
2023/12/15 09:22:50;;;;;;;;;;;;;;;8.68;100.00;103305.81;5125157;28;19923;-38
2023/12/15 09:25:15;;;;;;;;;;;;;;;8.72;100.00;103307.31;5120890;27;19927;-39
2023/12/15 09:27:40;;;;;;;;;;;;;;;8.72;100.00;103307.31;5121294;28;19983;-38
2023/12/15 09:30:06;;;;;;;;;;;;;;;8.72;100.00;103313.56;5122736;28;19927;-37
2023/12/15 09:32:31;;;;;;;;;;;;;;;8.76;100.00;103319.56;5125321;28;20323;-38
2023/12/15 09:34:56;;;;;;;;;;;;;;;8.82;100.00;103332.56;5133862;27;19991;-37
2023/12/15 09:37:22;;;;;;;;;;;;;;;8.87;100.00;103338.44;5128580;27;19927;-38
2023/12/15 09:39:48;;;;;;;;;;;;;;;8.88;100.00;103336.63;5124285;28;19940;-38
2023/12/15 09:42:14;;;;;;;;;;;;;;;8.86;100.00;103335.88;5129122;27;19994;-37
2023/12/15 09:44:39;;;;;;;;;;;;;;;8.86;100.00;103338.56;5129335;27;19941;-38
2023/12/15 09:47:04;;;;;;;;;;;;;;;8.86;100.00;103350.16;5128484;28;19919;-38
2023/12/15 09:49:30;;;;;;;;;;;;;;;8.90;100.00;103358.84;5129375;28;20060;-38
2023/12/15 09:51:56;;;;;;;;;;;;;;;8.89;100.00;103360.66;5127340;28;19923;-36
2023/12/15 09:54:21;;;;;;;;;;;;;;;8.91;100.00;103365.94;5126821;28;19920;-37
2023/12/15 09:56:46;;;;;;;;;;;;;;;8.89;100.00;103367.88;5124117;28;20336;-38
2023/12/15 09:59:14;;;;;;;;;;;;;;;8.94;100.00;103379.16;5117274;27;19919;-37
2023/12/15 10:01:40;;;;;;;;;;;;;;;8.96;100.00;103386.13;5125264;28;20366;-37
2023/12/15 10:04:05;;;;;;;;;;;;;;;8.96;100.00;103375.38;5124834;28;19919;-38
2023/12/15 10:06:34;;;;;;;;;;;;;;;8.99;100.00;103380.53;5126083;27;20323;-37
2023/12/15 10:08:59;;;;;;;;;;;;;;;8.97;100.00;103374.41;5127159;28;19931;-38
2023/12/15 10:11:27;;;;;;;;;;;;;;;8.98;100.00;103377.97;5127747;28;19920;-37
2023/12/15 10:13:52;;;;;;;;;;;;;;;9.01;100.00;103386.66;5127452;28;19919;-38
2023/12/15 10:16:17;;;;;;;;;;;;;;;8.99;100.00;103391.28;5128145;28;19926;-38
2023/12/15 10:18:42;;;;;;;;;;;;;;;9.04;100.00;103395.47;5127094;28;21422;-38
2023/12/15 10:21:07;;;;;;;;;;;;;;;9.01;100.00;103400.09;5127240;28;19920;-38
2023/12/15 10:23:33;;;;;;;;;;;;;;;8.99;100.00;103395.81;5125449;28;19955;-38
2023/12/15 10:25:59;;;;;;;;;;;;;;;9.01;100.00;103404.63;5121224;28;19927;-38
2023/12/15 10:28:24;;;;;;;;;;;;;;;9.04;100.00;103401.72;5118405;28;19920;-37
2023/12/15 10:30:50;;;;;;;;;;;;;;;9.04;100.00;103400.84;5123366;27;19945;-38
2023/12/15 10:33:18;;;;;;;;;;;;;;;9.04;100.00;103408.91;5123747;28;19920;-36
2023/12/15 10:35:47;;;;;;;;;;;;;;;9.08;100.00;103415.78;5116229;28;19926;-39
2023/12/15 10:38:13;;;;;;;;;;;;;;;9.10;100.00;103419.22;5123922;28;20373;-38
2023/12/15 10:40:38;;;;;;;;;;;;;;;9.12;100.00;103426.19;5119034;28;19962;-37
2023/12/15 10:43:03;;;;;;;;;;;;;;;9.16;100.00;103429.50;5124444;28;19919;-38
2023/12/15 10:45:29;;;;;;;;;;;;;;;9.16;100.00;103429.50;5109666;27;20338;-36
2023/12/15 10:47:54;;;;;;;;;;;;;;;9.21;100.00;103443.47;5103145;28;19923;-37
2023/12/15 10:50:19;;;;;;;;;;;;;;;9.21;100.00;103438.97;5110014;28;19920;-39
2023/12/15 10:52:45;;;;;;;;;;;;;;;9.22;100.00;103434.47;5114545;28;20389;-36
2023/12/15 10:55:11;;;;;;;;;;;;;;;9.24;100.00;103437.88;5115844;28;19926;-37
2023/12/15 10:57:37;;;;;;;;;;;;;;;9.25;100.00;103446.84;5115496;28;20445;-38
2023/12/15 11:00:03;;;;;;;;;;;;;;;9.24;100.00;103445.94;5111860;27;19979;-37
2023/12/15 11:02:30;;;;;;;;;;;;;;;9.24;100.00;103445.94;5098892;28;20010;-41
2023/12/15 11:04:55;;;;;;;;;;;;;;;9.28;100.00;103433.16;5112176;28;20392;-43
2023/12/15 11:07:24;;;;;;;;;;;;;;;9.29;100.00;103427.66;5112693;28;19920;-43
2023/12/15 11:09:49;;;;;;;;;;;;;;;9.33;100.00;103420.25;5111069;28;19965;-43
2023/12/15 11:12:28;;;;;;;;;;;;;;;9.36;100.00;103415.50;5112630;28;19919;-43
2023/12/15 11:14:59;;;;;;;;;;;;;;;9.41;100.00;103412.50;5113845;28;20400;-43
2023/12/15 11:17:25;;;;;;;;;;;;;;;9.44;100.00;103405.06;5112836;28;19919;-43
2023/12/15 11:19:53;;;;;;;;;;;;;;;9.54;100.00;103397.19;5111919;28;19924;-44
2023/12/15 11:22:18;;;;;;;;;;;;;;;9.62;100.00;103388.56;5112256;28;19959;-42
2023/12/15 11:24:44;;;;;;;;;;;;;;;9.77;100.00;103371.31;5111410;28;19950;-43
2023/12/15 11:27:13;;;;;;;;;;;;;;;9.87;100.00;103366.94;5112795;28;19916;-43
2023/12/15 11:29:38;;;;;;;;;;;;;;;9.94;100.00;103361.94;5112311;28;19961;-43
2023/12/15 11:32:35;;;;;;;;;;;;;;;10.01;100.00;103371.28;5112917;28;19916;-44
2023/12/15 11:35:01;;;;;;;;;;;;;;;10.31;100.00;103383.41;5078219;28;19922;-44
2023/12/15 11:37:26;;;;;;;;;;;;;;;10.39;100.00;103409.72;5112891;28;20014;-44
2023/12/15 11:39:55;;;;;;;;;;;;;;;10.42;100.00;103431.03;5111250;28;19920;-44
2023/12/15 11:42:21;;;;;;;;;;;;;;;10.33;100.00;103422.69;5112139;28;19955;-43
2023/12/15 11:44:46;;;;;;;;;;;;;;;10.33;100.00;103411.91;5112653;28;19912;-43
2023/12/15 11:47:11;;;;;;;;;;;;;;;10.29;100.00;103423.91;5111933;28;20436;-43
2023/12/15 11:49:42;;;;;;;;;;;;;;;10.26;100.00;103426.78;5112554;28;20296;-43
2023/12/15 11:52:11;;;;;;;;;;;;;;;10.18;100.00;103433.72;5102610;28;19920;-43
2023/12/15 11:54:37;;;;;;;;;;;;;;;10.17;100.00;103437.41;5092093;28;20007;-44
2023/12/15 11:57:05;;;;;;;;;;;;;;;10.11;100.00;103436.88;5093259;28;19966;-42
2023/12/15 11:59:34;;;;;;;;;;;;;;;10.16;100.00;103423.06;5091962;28;20393;-42
2023/12/15 12:01:59;;;;;;;;;;;;;;;10.16;100.00;103425.75;5090064;28;19916;-42
2023/12/15 12:04:24;;;;;;;;;;;;;;;10.13;100.00;103428.69;5107118;28;19916;-45
2023/12/15 12:06:50;;;;;;;;;;;;;;;10.14;100.00;103427.72;5091909;28;20011;-43
2023/12/15 12:09:15;;;;;;;;;;;;;;;10.14;100.00;103424.16;5107355;28;20011;-42
2023/12/15 12:11:40;;;;;;;;;;;;;;;10.07;100.00;103438.06;5092469;28;20011;-43
2023/12/15 12:14:05;;;;;;;;;;;;;;;10.08;100.00;103438.94;5092063;28;19959;-43
2023/12/15 12:16:34;;;;;;;;;;;;;;;10.01;100.00;103430.47;5091898;28;20220;-43
2023/12/15 12:19:00;;;;;;;;;;;;;;;10.04;100.00;103424.00;5094622;28;19970;-43
2023/12/15 12:21:25;;;;;;;;;;;;;;;10.01;100.00;103427.78;5099479;28;19967;-42
2023/12/15 12:23:50;;;;;;;;;;;;;;;9.98;100.00;103427.13;5111621;28;20343;-44
2023/12/15 12:26:15;;;;;;;;;;;;;;;9.93;100.00;103429.34;5093905;28;19922;-43